Time,TemperatureF,DewpointF,PressureIn,WindDirection,WindDirectionDegrees,WindSpeedMPH,WindSpeedGustMPH,Humidity,HourlyPrecipIn,Conditions,Clouds,dailyrainin,SoftwareType,DateUTC
2013-10-22 00:00:00,40.4,38.5,30.13,NNE,26,0.0,0.0,93,0.00,,---,0.00,VWS V14.01,2013-10-22 05:00:00,
2013-10-22 00:01:00,40.4,38.5,30.13,NNE,26,0.0,0.0,93,0.00,,---,0.00,VWS V14.01,2013-10-22 05:01:00,
2013-10-22 00:04:00,40.2,38.3,30.13,NNE,26,0.0,0.0,93,0.00,,---,0.00,VWS V14.01,2013-10-22 05:04:00,
2013-10-22 00:07:00,40.2,38.6,30.13,NNE,26,0.0,0.0,94,0.00,,---,0.00,VWS V14.01,2013-10-22 05:07:00,
2013-10-22 00:10:00,40.2,38.6,30.13,NNE,26,0.0,0.0,94,0.00,,---,0.00,VWS V14.01,2013-10-22 05:10:00,
2013-10-22 00:13:00,40.0,38.1,30.13,NNE,26,0.0,0.0,93,0.00,,---,0.00,VWS V14.01,2013-10-22 05:13:00,
2013-10-22 00:16:00,39.9,38.0,30.13,NNE,26,0.0,0.0,93,0.00,,---,0.00,VWS V14.01,2013-10-22 05:16:00,
2013-10-22 00:19:00,39.8,38.0,30.13,NNE,26,0.0,0.0,93,0.00,,---,0.00,VWS V14.01,2013-10-22 05:19:00,
2013-10-22 00:22:00,39.7,38.1,30.13,NNE,26,0.0,0.0,94,0.00,,---,0.00,VWS V14.01,2013-10-22 05:22:00,
2013-10-22 00:25:00,39.6,38.0,30.14,NNE,26,0.0,0.0,94,0.00,,---,0.00,VWS V14.01,2013-10-22 05:25:00,
2013-10-22 00:28:00,39.6,38.0,30.14,NNE,26,0.0,0.0,94,0.00,,---,0.00,VWS V14.01,2013-10-22 05:28:00,
2013-10-22 00:30:00,39.6,38.0,30.14,NNE,26,0.0,0.0,94,0.00,,---,0.00,VWS V14.01,2013-10-22 05:30:00,
2013-10-22 00:31:00,39.6,38.0,30.14,NNE,26,0.0,0.0,94,0.00,,---,0.00,VWS V14.01,2013-10-22 05:31:00,
2013-10-22 00:34:00,39.7,38.1,30.14,NNE,26,0.0,0.0,94,0.00,,---,0.00,VWS V14.01,2013-10-22 05:34:00,
2013-10-22 00:37:00,39.7,38.1,30.14,NNE,26,0.0,0.0,94,0.00,,---,0.00,VWS V14.01,2013-10-22 05:37:00,
2013-10-22 00:40:00,39.7,38.1,30.14,NNE,26,0.0,0.0,94,0.00,,---,0.00,VWS V14.01,2013-10-22 05:40:00,
2013-10-22 00:43:00,39.7,38.1,30.14,NNE,26,0.0,0.0,94,0.00,,---,0.00,VWS V14.01,2013-10-22 05:43:00,
2013-10-22 00:46:00,39.6,38.0,30.14,NNE,26,0.0,0.0,94,0.00,,---,0.00,VWS V14.01,2013-10-22 05:46:00,
2013-10-22 00:49:00,39.5,37.9,30.14,NNE,26,0.0,0.0,94,0.00,,---,0.00,VWS V14.01,2013-10-22 05:49:00,
2013-10-22 00:52:00,39.4,37.8,30.14,NNE,26,0.0,0.0,94,0.00,,---,0.00,VWS V14.01,2013-10-22 05:52:00,
2013-10-22 00:55:00,39.3,37.7,30.14,NNE,26,0.0,0.0,94,0.00,,---,0.00,VWS V14.01,2013-10-22 05:55:00,
2013-10-22 00:58:00,39.3,37.7,30.14,NNE,26,0.0,0.0,94,0.00,,---,0.00,VWS V14.01,2013-10-22 05:58:00,
2013-10-22 01:04:00,39.0,37.4,30.14,NNE,26,0.0,0.0,94,0.00,,---,0.00,VWS V14.01,2013-10-22 06:04:00,
2013-10-22 01:07:00,38.9,37.3,30.15,NNE,26,0.0,0.0,94,0.00,,---,0.00,VWS V14.01,2013-10-22 06:07:00,
2013-10-22 01:13:00,38.7,37.1,30.15,NNE,26,0.0,0.0,94,0.00,,---,0.00,VWS V14.01,2013-10-22 06:13:00,
2013-10-22 01:16:00,38.4,36.8,30.15,NNE,26,0.0,0.0,94,0.00,,---,0.00,VWS V14.01,2013-10-22 06:16:00,
2013-10-22 01:22:00,38.0,36.4,30.15,NNE,26,0.0,0.0,94,0.00,,---,0.00,VWS V14.01,2013-10-22 06:22:00,
2013-10-22 01:30:00,37.5,35.7,30.15,NNE,26,0.0,0.0,93,0.00,,---,0.00,VWS V14.01,2013-10-22 06:30:00,
2013-10-22 01:35:00,37.5,35.9,30.15,NNE,26,0.0,0.0,94,0.00,,---,0.00,VWS V14.01,2013-10-22 06:35:00,
2013-10-22 01:38:00,37.5,35.9,30.15,NNE,26,0.0,0.0,94,0.00,,---,0.00,VWS V14.01,2013-10-22 06:38:00,
2013-10-22 01:41:00,37.5,35.9,30.15,NNE,26,0.0,0.0,94,0.00,,---,0.00,VWS V14.01,2013-10-22 06:41:00,
2013-10-22 01:44:00,37.4,35.8,30.15,NNE,26,0.0,0.0,94,0.00,,---,0.00,VWS V14.01,2013-10-22 06:44:00,
2013-10-22 01:47:00,37.4,35.8,30.15,NNE,26,0.0,0.0,94,0.00,,---,0.00,VWS V14.01,2013-10-22 06:47:00,
2013-10-22 01:50:00,37.4,35.8,30.15,NNE,26,0.0,0.0,94,0.00,,---,0.00,VWS V14.01,2013-10-22 06:50:00,
2013-10-22 01:53:00,37.4,35.8,30.15,NNE,26,0.0,0.0,94,0.00,,---,0.00,VWS V14.01,2013-10-22 06:53:00,
2013-10-22 01:56:00,37.6,36.3,30.15,NNE,26,0.0,0.0,95,0.00,,---,0.00,VWS V14.01,2013-10-22 06:56:00,
2013-10-22 01:58:00,39.2,37.6,30.14,NNE,26,0.0,0.0,94,0.00,,---,0.00,VWS V14.01,2013-10-22 06:58:00,
2013-10-22 01:59:00,37.8,36.5,30.15,NNE,26,0.0,0.0,95,0.00,,---,0.00,VWS V14.01,2013-10-22 06:59:00,
2013-10-22 02:00:00,37.9,36.6,30.15,NNE,26,0.0,0.0,95,0.00,,---,0.00,VWS V14.01,2013-10-22 07:00:00,
2013-10-22 02:02:00,38.1,36.8,30.15,NNE,26,0.0,0.0,95,0.00,,---,0.00,VWS V14.01,2013-10-22 07:02:00,
2013-10-22 02:05:00,38.1,36.8,30.15,NNE,26,0.0,0.0,95,0.00,,---,0.00,VWS V14.01,2013-10-22 07:05:00,
2013-10-22 02:09:00,38.8,37.2,30.15,NNE,26,0.0,0.0,94,0.00,,---,0.00,VWS V14.01,2013-10-22 07:09:00,
2013-10-22 02:11:00,38.0,36.7,30.15,NNE,26,0.0,0.0,95,0.00,,---,0.00,VWS V14.01,2013-10-22 07:11:00,
2013-10-22 02:14:00,38.0,36.7,30.15,NNE,26,0.0,0.0,95,0.00,,---,0.00,VWS V14.01,2013-10-22 07:14:00,
2013-10-22 02:17:00,37.9,36.6,30.15,NNE,26,0.0,0.0,95,0.00,,---,0.00,VWS V14.01,2013-10-22 07:17:00,
2013-10-22 02:18:00,38.2,36.4,30.15,NNE,26,0.0,0.0,93,0.00,,---,0.00,VWS V14.01,2013-10-22 07:18:00,
2013-10-22 02:20:00,37.7,36.4,30.15,NNE,26,0.0,0.0,95,0.00,,---,0.00,VWS V14.01,2013-10-22 07:20:00,
2013-10-22 02:24:00,37.8,36.2,30.15,NNE,26,0.0,0.0,94,0.00,,---,0.00,VWS V14.01,2013-10-22 07:24:00,
2013-10-22 02:26:00,37.2,35.6,30.15,NNE,26,0.0,0.0,94,0.00,,---,0.00,VWS V14.01,2013-10-22 07:26:00,
2013-10-22 02:30:00,37.5,35.9,30.15,NNE,26,0.0,0.0,94,0.00,,---,0.00,VWS V14.01,2013-10-22 07:30:00,
2013-10-22 02:32:00,36.9,35.3,30.15,NNE,26,0.0,0.0,94,0.00,,---,0.00,VWS V14.01,2013-10-22 07:32:00,
2013-10-22 02:35:00,36.8,35.2,30.15,NNE,26,0.0,0.0,94,0.00,,---,0.00,VWS V14.01,2013-10-22 07:35:00,
2013-10-22 02:41:00,36.8,35.5,30.14,NNE,26,1.0,1.0,95,0.00,,---,0.00,VWS V14.01,2013-10-22 07:41:00,
2013-10-22 02:44:00,37.0,35.7,30.14,NNE,26,1.0,1.0,95,0.00,,---,0.00,VWS V14.01,2013-10-22 07:44:00,
2013-10-22 02:47:00,37.1,35.8,30.14,NNE,26,1.0,2.0,95,0.00,,---,0.00,VWS V14.01,2013-10-22 07:47:00,
2013-10-22 02:50:00,37.2,35.9,30.15,NNE,26,0.0,2.0,95,0.00,,---,0.00,VWS V14.01,2013-10-22 07:50:00,
2013-10-22 02:53:00,37.3,36.0,30.15,NNE,26,0.0,2.0,95,0.00,,---,0.00,VWS V14.01,2013-10-22 07:53:00,
2013-10-22 02:56:00,37.3,36.0,30.15,NNE,26,0.0,2.0,95,0.00,,---,0.00,VWS V14.01,2013-10-22 07:56:00,
2013-10-22 03:00:00,37.2,35.9,30.14,NNE,26,0.0,2.0,95,0.00,,---,0.00,VWS V14.01,2013-10-22 08:00:00,
2013-10-22 03:07:00,38.0,36.7,30.15,NNE,26,0.0,0.0,95,0.00,,---,0.00,VWS V14.01,2013-10-22 08:07:00,
2013-10-22 03:11:00,36.9,35.6,30.14,NNE,26,0.0,1.0,95,0.00,,---,0.00,VWS V14.01,2013-10-22 08:11:00,
2013-10-22 03:14:00,36.9,35.6,30.14,NNE,26,1.0,1.0,95,0.00,,---,0.00,VWS V14.01,2013-10-22 08:14:00,
2013-10-22 03:17:00,36.9,35.6,30.14,NNE,26,0.0,1.0,95,0.00,,---,0.00,VWS V14.01,2013-10-22 08:17:00,
2013-10-22 03:22:00,37.5,35.9,30.15,NNE,26,0.0,0.0,94,0.00,,---,0.00,VWS V14.01,2013-10-22 08:22:00,
2013-10-22 03:23:00,36.8,35.5,30.14,NNE,26,0.0,1.0,95,0.00,,---,0.00,VWS V14.01,2013-10-22 08:23:00,
2013-10-22 03:28:00,37.0,35.4,30.15,NNE,26,0.0,0.0,94,0.00,,---,0.00,VWS V14.01,2013-10-22 08:28:00,
2013-10-22 03:30:00,36.9,35.6,30.14,NNE,26,0.0,1.0,95,0.00,,---,0.00,VWS V14.01,2013-10-22 08:30:00,
2013-10-22 03:32:00,37.0,35.7,30.14,NNE,26,0.0,0.0,95,0.00,,---,0.00,VWS V14.01,2013-10-22 08:32:00,
2013-10-22 03:35:00,36.9,35.6,30.14,NNE,26,0.0,0.0,95,0.00,,---,0.00,VWS V14.01,2013-10-22 08:35:00,
2013-10-22 03:37:00,36.8,35.5,30.15,NNE,26,0.0,0.0,95,0.00,,---,0.00,VWS V14.01,2013-10-22 08:37:00,
2013-10-22 03:38:00,36.5,35.2,30.14,NNE,26,0.0,0.0,95,0.00,,---,0.00,VWS V14.01,2013-10-22 08:38:00,
2013-10-22 03:42:00,36.1,34.5,30.14,NNE,26,0.0,0.0,94,0.00,,---,0.00,VWS V14.01,2013-10-22 08:42:00,
2013-10-22 03:48:00,35.7,34.2,30.14,NNE,26,0.0,0.0,94,0.00,,---,0.00,VWS V14.01,2013-10-22 08:48:00,
2013-10-22 03:51:00,35.7,34.4,30.14,NNE,26,0.0,0.0,95,0.00,,---,0.00,VWS V14.01,2013-10-22 08:51:00,
2013-10-22 03:57:00,36.0,34.7,30.14,NNE,26,1.0,1.0,95,0.00,,---,0.00,VWS V14.01,2013-10-22 08:57:00,
2013-10-22 03:58:00,37.2,35.9,30.14,NNE,26,0.0,2.0,95,0.00,,---,0.00,VWS V14.01,2013-10-22 08:58:00,
2013-10-22 04:01:00,37.1,35.8,30.14,NNE,26,1.0,1.0,95,0.00,,---,0.00,VWS V14.01,2013-10-22 09:01:00,
2013-10-22 04:03:00,36.5,35.5,30.15,NNE,26,0.0,2.0,96,0.00,,---,0.00,VWS V14.01,2013-10-22 09:03:00,
2013-10-22 04:04:00,37.1,35.8,30.14,NNE,26,0.0,1.0,95,0.00,,---,0.00,VWS V14.01,2013-10-22 09:04:00,
2013-10-22 04:06:00,36.7,35.7,30.15,NNE,26,0.0,2.0,96,0.00,,---,0.00,VWS V14.01,2013-10-22 09:06:00,
2013-10-22 04:07:00,36.9,35.6,30.14,NNE,26,0.0,1.0,95,0.00,,---,0.00,VWS V14.01,2013-10-22 09:07:00,
2013-10-22 04:18:00,37.2,36.2,30.15,NNE,26,0.0,2.0,96,0.00,,---,0.00,VWS V14.01,2013-10-22 09:18:00,
2013-10-22 04:19:00,36.9,35.6,30.14,NNE,26,0.0,1.0,95,0.00,,---,0.00,VWS V14.01,2013-10-22 09:19:00,
2013-10-22 04:21:00,37.3,36.3,30.15,NNE,26,0.0,2.0,96,0.00,,---,0.00,VWS V14.01,2013-10-22 09:21:00,
2013-10-22 04:25:00,36.8,35.5,30.14,NNE,26,0.0,1.0,95,0.00,,---,0.00,VWS V14.01,2013-10-22 09:25:00,
2013-10-22 04:27:00,37.5,36.5,30.15,NNE,26,0.0,2.0,96,0.00,,---,0.00,VWS V14.01,2013-10-22 09:27:00,
2013-10-22 04:28:00,36.9,35.6,30.14,NNE,26,0.0,1.0,95,0.00,,---,0.00,VWS V14.01,2013-10-22 09:28:00,
2013-10-22 04:39:00,37.8,36.8,30.15,NNE,26,0.0,1.0,96,0.00,,---,0.00,VWS V14.01,2013-10-22 09:39:00,
2013-10-22 04:42:00,37.8,36.8,30.14,NNE,26,0.0,1.0,96,0.00,,---,0.00,VWS V14.01,2013-10-22 09:42:00,
2013-10-22 04:43:00,35.8,34.2,30.14,NNE,26,0.0,0.0,94,0.00,,---,0.00,VWS V14.01,2013-10-22 09:43:00,
2013-10-22 04:52:00,35.8,34.5,30.14,NNE,26,0.0,1.0,95,0.00,,---,0.00,VWS V14.01,2013-10-22 09:52:00,
2013-10-22 04:58:00,36.2,34.9,30.15,NNE,26,0.0,1.0,95,0.00,,---,0.00,VWS V14.01,2013-10-22 09:58:00,
2013-10-22 05:00:00,37.3,36.3,30.14,NNE,26,0.0,1.0,96,0.00,,---,0.00,VWS V14.01,2013-10-22 10:00:00,
2013-10-22 05:08:00,36.9,35.9,30.15,NNE,26,0.0,2.0,96,0.00,,---,0.00,VWS V14.01,2013-10-22 10:08:00,
2013-10-22 05:11:00,37.0,36.0,30.15,NNE,26,0.0,2.0,96,0.00,,---,0.00,VWS V14.01,2013-10-22 10:11:00,
2013-10-22 05:23:00,37.5,36.5,30.15,NNE,26,0.0,2.0,96,0.00,,---,0.00,VWS V14.01,2013-10-22 10:23:00,
2013-10-22 05:28:00,37.5,36.5,30.15,NNE,26,0.0,2.0,96,0.00,,---,0.00,VWS V14.01,2013-10-22 10:28:00,
2013-10-22 05:30:00,36.0,34.7,30.15,NNE,26,0.0,0.0,95,0.00,,---,0.00,VWS V14.01,2013-10-22 10:30:00,
2013-10-22 05:32:00,37.6,36.6,30.15,NNE,26,0.0,0.0,96,0.00,,---,0.00,VWS V14.01,2013-10-22 10:32:00,
2013-10-22 05:33:00,36.2,34.9,30.15,NNE,26,0.0,0.0,95,0.00,,---,0.00,VWS V14.01,2013-10-22 10:33:00,
2013-10-22 05:35:00,37.8,36.8,30.15,NNE,26,0.0,1.0,96,0.00,,---,0.00,VWS V14.01,2013-10-22 10:35:00,
2013-10-22 05:36:00,36.4,35.4,30.15,NNE,26,0.0,0.0,96,0.00,,---,0.00,VWS V14.01,2013-10-22 10:36:00,
2013-10-22 05:44:00,37.7,36.7,30.14,NNE,26,0.0,1.0,96,0.00,,---,0.00,VWS V14.01,2013-10-22 10:44:00,
2013-10-22 05:47:00,37.4,36.1,30.14,NNE,26,0.0,1.0,95,0.00,,---,0.00,VWS V14.01,2013-10-22 10:47:00,
2013-10-22 05:50:00,37.2,35.9,30.14,NNE,26,0.0,1.0,95,0.00,,---,0.00,VWS V14.01,2013-10-22 10:50:00,
2013-10-22 05:53:00,37.2,35.9,30.14,NNE,26,0.0,1.0,95,0.00,,---,0.00,VWS V14.01,2013-10-22 10:53:00,
2013-10-22 05:56:00,37.3,36.0,30.14,NNE,26,0.0,1.0,95,0.00,,---,0.00,VWS V14.01,2013-10-22 10:56:00,
2013-10-22 05:59:00,37.3,36.3,30.14,NNE,26,0.0,0.0,96,0.00,,---,0.00,VWS V14.01,2013-10-22 10:59:00,
2013-10-22 06:02:00,37.3,36.3,30.14,NNE,26,0.0,0.0,96,0.00,,---,0.00,VWS V14.01,2013-10-22 11:02:00,
2013-10-22 06:05:00,37.1,35.8,30.15,NNE,26,0.0,0.0,95,0.00,,---,0.00,VWS V14.01,2013-10-22 11:05:00,
2013-10-22 06:11:00,36.5,35.2,30.15,NNE,26,0.0,0.0,95,0.00,,---,0.00,VWS V14.01,2013-10-22 11:11:00,
2013-10-22 06:14:00,36.4,35.1,30.15,NNE,26,0.0,0.0,95,0.00,,---,0.00,VWS V14.01,2013-10-22 11:14:00,
2013-10-22 06:19:00,37.0,36.0,30.16,NNE,26,0.0,0.0,96,0.00,,---,0.00,VWS V14.01,2013-10-22 11:19:00,
2013-10-22 06:20:00,36.1,34.8,30.15,NNE,26,0.0,0.0,95,0.00,,---,0.00,VWS V14.01,2013-10-22 11:20:00,
2013-10-22 06:23:00,35.9,34.6,30.15,NNE,26,0.0,0.0,95,0.00,,---,0.00,VWS V14.01,2013-10-22 11:23:00,
2013-10-22 06:26:00,35.9,34.6,30.15,NNE,26,0.0,0.0,95,0.00,,---,0.00,VWS V14.01,2013-10-22 11:26:00,
2013-10-22 06:28:00,36.0,34.7,30.15,NNE,26,0.0,0.0,95,0.00,,---,0.00,VWS V14.01,2013-10-22 11:28:00,
2013-10-22 06:38:00,36.4,35.4,30.15,NNE,26,0.0,0.0,96,0.00,,---,0.00,VWS V14.01,2013-10-22 11:38:00,
2013-10-22 06:41:00,36.2,34.9,30.15,NNE,26,0.0,0.0,95,0.00,,---,0.00,VWS V14.01,2013-10-22 11:41:00,
2013-10-22 06:44:00,35.9,34.6,30.15,NNE,26,0.0,0.0,95,0.00,,---,0.00,VWS V14.01,2013-10-22 11:44:00,
2013-10-22 06:47:00,35.5,34.2,30.15,NNE,26,0.0,0.0,95,0.00,,---,0.00,VWS V14.01,2013-10-22 11:47:00,
2013-10-22 06:53:00,35.1,33.8,30.15,NNE,26,0.0,0.0,95,0.00,,---,0.00,VWS V14.01,2013-10-22 11:53:00,
2013-10-22 06:56:00,35.1,33.8,30.16,NNE,26,0.0,0.0,95,0.00,,---,0.00,VWS V14.01,2013-10-22 11:56:00,
2013-10-22 06:58:00,35.1,33.8,30.16,NNE,26,0.0,0.0,95,0.00,,---,0.00,VWS V14.01,2013-10-22 11:58:00,
2013-10-22 06:59:00,35.2,33.9,30.15,NNE,26,0.0,0.0,95,0.00,,---,0.00,VWS V14.01,2013-10-22 11:59:00,
2013-10-22 07:05:00,36.0,35.0,30.16,NNE,26,0.0,0.0,96,0.00,,---,0.00,VWS V14.01,2013-10-22 12:05:00,
2013-10-22 07:11:00,36.8,35.8,30.16,NNE,26,0.0,0.0,96,0.00,,---,0.00,VWS V14.01,2013-10-22 12:11:00,
2013-10-22 07:14:00,36.9,35.9,30.16,NNE,26,0.0,0.0,96,0.00,,---,0.00,VWS V14.01,2013-10-22 12:14:00,
2013-10-22 07:21:00,37.3,36.3,30.15,NNE,26,0.0,0.0,96,0.00,,---,0.00,VWS V14.01,2013-10-22 12:21:00,
2013-10-22 07:24:00,37.7,36.7,30.16,NNE,26,0.0,0.0,96,0.00,,---,0.00,VWS V14.01,2013-10-22 12:24:00,
2013-10-22 07:27:00,38.0,37.0,30.16,NNE,26,1.0,2.0,96,0.00,,---,0.00,VWS V14.01,2013-10-22 12:27:00,
2013-10-22 07:28:00,38.2,37.2,30.16,NNE,26,0.0,2.0,96,0.00,,---,0.00,VWS V14.01,2013-10-22 12:28:00,
2013-10-22 07:30:00,38.2,37.2,30.16,NNE,26,1.0,1.0,96,0.00,,---,0.00,VWS V14.01,2013-10-22 12:30:00,
2013-10-22 07:36:00,38.3,37.3,30.16,NNE,26,0.0,2.0,96,0.00,,---,0.00,VWS V14.01,2013-10-22 12:36:00,
2013-10-22 07:39:00,38.4,37.4,30.16,NNE,26,0.0,2.0,96,0.00,,---,0.00,VWS V14.01,2013-10-22 12:39:00,
2013-10-22 07:42:00,38.3,37.3,30.16,NNE,26,0.0,2.0,96,0.00,,---,0.00,VWS V14.01,2013-10-22 12:42:00,
2013-10-22 07:45:00,38.1,37.1,30.16,NNE,26,0.0,2.0,96,0.00,,---,0.00,VWS V14.01,2013-10-22 12:45:00,
2013-10-22 07:48:00,37.9,36.9,30.16,NNE,26,0.0,2.0,96,0.00,,---,0.00,VWS V14.01,2013-10-22 12:48:00,
2013-10-22 07:51:00,37.8,36.8,30.16,NNE,26,0.0,2.0,96,0.00,,---,0.00,VWS V14.01,2013-10-22 12:51:00,
2013-10-22 07:54:00,37.6,36.6,30.16,NNE,26,0.0,2.0,96,0.00,,---,0.00,VWS V14.01,2013-10-22 12:54:00,
2013-10-22 07:57:00,37.7,36.7,30.16,NNE,26,0.0,2.0,96,0.00,,---,0.00,VWS V14.01,2013-10-22 12:57:00,
2013-10-22 07:58:00,37.7,36.7,30.16,NNE,26,0.0,2.0,96,0.00,,---,0.00,VWS V14.01,2013-10-22 12:58:00,
2013-10-22 08:00:00,37.7,36.7,30.16,NNE,26,0.0,0.0,96,0.00,,---,0.00,VWS V14.01,2013-10-22 13:00:00,
2013-10-22 08:06:00,38.0,37.0,30.16,NNE,26,0.0,0.0,96,0.00,,---,0.00,VWS V14.01,2013-10-22 13:06:00,
2013-10-22 08:12:00,38.2,37.2,30.16,NNE,26,0.0,0.0,96,0.01,,---,0.01,VWS V14.01,2013-10-22 13:12:00,
2013-10-22 08:15:00,38.4,37.4,30.16,NNE,26,0.0,0.0,96,0.01,,---,0.01,VWS V14.01,2013-10-22 13:15:00,
2013-10-22 08:18:00,38.6,37.6,30.17,NNE,26,0.0,0.0,96,0.01,,---,0.01,VWS V14.01,2013-10-22 13:18:00,
2013-10-22 08:24:00,39.1,38.1,30.17,NNE,26,0.0,0.0,96,0.01,,---,0.01,VWS V14.01,2013-10-22 13:24:00,
2013-10-22 08:27:00,39.6,38.6,30.17,NNE,26,0.0,0.0,96,0.01,,---,0.01,VWS V14.01,2013-10-22 13:27:00,
2013-10-22 08:33:00,40.8,40.0,30.17,NNE,26,0.0,0.0,97,0.01,,---,0.01,VWS V14.01,2013-10-22 13:33:00,
2013-10-22 08:36:00,41.5,40.5,30.17,NNE,26,0.0,0.0,96,0.01,,---,0.01,VWS V14.01,2013-10-22 13:36:00,
2013-10-22 08:39:00,42.1,41.3,30.17,NNE,26,0.0,0.0,97,0.01,,---,0.01,VWS V14.01,2013-10-22 13:39:00,
2013-10-22 08:42:00,42.7,41.9,30.17,NNE,26,0.0,0.0,97,0.01,,---,0.01,VWS V14.01,2013-10-22 13:42:00,
2013-10-22 08:45:00,43.2,42.4,30.17,NNE,26,0.0,0.0,97,0.01,,---,0.01,VWS V14.01,2013-10-22 13:45:00,
2013-10-22 08:51:00,44.1,43.3,30.17,NNE,26,0.0,0.0,97,0.01,,---,0.01,VWS V14.01,2013-10-22 13:51:00,
2013-10-22 08:54:00,44.6,43.8,30.17,NNE,26,0.0,0.0,97,0.01,,---,0.01,VWS V14.01,2013-10-22 13:54:00,
2013-10-22 08:57:00,45.1,44.3,30.17,NNE,26,0.0,0.0,97,0.01,,---,0.01,VWS V14.01,2013-10-22 13:57:00,
2013-10-22 08:58:00,45.2,44.4,30.17,NNE,26,0.0,0.0,97,0.01,,---,0.01,VWS V14.01,2013-10-22 13:58:00,
2013-10-22 09:03:00,46.0,45.2,30.17,NNE,26,0.0,0.0,97,0.01,,---,0.01,VWS V14.01,2013-10-22 14:03:00,
2013-10-22 09:09:00,47.1,46.3,30.17,NNE,26,0.0,0.0,97,0.01,,---,0.01,VWS V14.01,2013-10-22 14:09:00,
2013-10-22 09:15:00,48.2,47.4,30.18,NNE,26,0.0,0.0,97,0.01,,---,0.01,VWS V14.01,2013-10-22 14:15:00,
2013-10-22 09:19:00,48.6,47.8,30.18,NNE,26,0.0,0.0,97,0.01,,---,0.01,VWS V14.01,2013-10-22 14:19:00,
2013-10-22 09:22:00,49.1,48.3,30.18,SW,230,0.0,1.0,97,0.01,,---,0.01,VWS V14.01,2013-10-22 14:22:00,
2013-10-22 09:25:00,49.6,48.8,30.18,SW,223,0.0,2.0,97,0.01,,---,0.01,VWS V14.01,2013-10-22 14:25:00,
2013-10-22 09:28:00,49.9,49.1,30.17,SW,217,2.0,4.0,97,0.01,,---,0.01,VWS V14.01,2013-10-22 14:28:00,
2013-10-22 09:31:00,50.3,49.5,30.18,SW,219,0.0,1.0,97,0.00,,---,0.01,VWS V14.01,2013-10-22 14:31:00,
2013-10-22 09:34:00,50.6,49.8,30.18,WSW,240,0.0,3.0,97,0.00,,---,0.01,VWS V14.01,2013-10-22 14:34:00,
2013-10-22 09:37:00,50.8,50.0,30.18,WSW,242,4.0,4.0,97,0.00,,---,0.01,VWS V14.01,2013-10-22 14:37:00,
2013-10-22 09:40:00,51.1,50.3,30.18,SW,224,2.0,4.0,97,0.00,,---,0.01,VWS V14.01,2013-10-22 14:40:00,
2013-10-22 09:43:00,51.6,50.5,30.18,SW,226,0.0,5.0,96,0.00,,---,0.01,VWS V14.01,2013-10-22 14:43:00,
2013-10-22 09:49:00,52.7,50.5,30.18,SW,231,4.0,5.0,92,0.00,,---,0.01,VWS V14.01,2013-10-22 14:49:00,
2013-10-22 09:52:00,53.2,50.0,30.18,SW,232,0.0,5.0,89,0.00,,---,0.01,VWS V14.01,2013-10-22 14:52:00,
2013-10-22 09:58:00,54.2,49.8,30.18,West,279,1.0,6.0,85,0.00,,---,0.01,VWS V14.01,2013-10-22 14:58:00,
2013-10-22 10:04:00,55.1,49.4,30.18,SW,232,5.0,6.0,81,0.00,,---,0.01,VWS V14.01,2013-10-22 15:04:00,
2013-10-22 10:07:00,55.6,49.5,30.18,SW,221,3.0,6.0,80,0.00,,---,0.01,VWS V14.01,2013-10-22 15:07:00,
2013-10-22 10:10:00,55.9,49.8,30.18,SW,223,4.0,6.0,80,0.00,,---,0.01,VWS V14.01,2013-10-22 15:10:00,
2013-10-22 10:16:00,56.8,49.3,30.18,SW,229,2.0,6.0,76,0.00,,---,0.01,VWS V14.01,2013-10-22 15:16:00,
2013-10-22 10:19:00,57.2,49.0,30.18,WSW,240,3.0,6.0,74,0.00,,---,0.01,VWS V14.01,2013-10-22 15:19:00,
2013-10-22 10:22:00,57.5,47.8,30.18,West,263,2.0,7.0,70,0.00,,---,0.01,VWS V14.01,2013-10-22 15:22:00,
2013-10-22 10:25:00,58.0,47.9,30.18,SW,229,4.0,7.0,69,0.00,,---,0.01,VWS V14.01,2013-10-22 15:25:00,
2013-10-22 10:28:00,58.4,48.7,30.18,WSW,244,3.0,7.0,70,0.00,,---,0.01,VWS V14.01,2013-10-22 15:28:00,
2013-10-22 10:31:00,58.7,48.6,30.18,WSW,239,0.0,4.0,69,0.00,,---,0.01,VWS V14.01,2013-10-22 15:31:00,
2013-10-22 10:34:00,59.2,48.7,30.18,West,260,2.0,5.0,68,0.00,,---,0.01,VWS V14.01,2013-10-22 15:34:00,
2013-10-22 10:37:00,59.4,47.7,30.19,West,278,0.0,6.0,65,0.00,,---,0.01,VWS V14.01,2013-10-22 15:37:00,
2013-10-22 10:40:00,59.7,47.9,30.19,WSW,248,0.0,6.0,65,0.00,,---,0.01,VWS V14.01,2013-10-22 15:40:00,
2013-10-22 10:43:00,59.9,47.7,30.18,SW,231,5.0,6.0,64,0.00,,---,0.01,VWS V14.01,2013-10-22 15:43:00,
2013-10-22 10:46:00,60.2,47.6,30.18,WSW,254,2.0,6.0,63,0.00,,---,0.01,VWS V14.01,2013-10-22 15:46:00,
2013-10-22 10:52:00,60.8,46.4,30.18,West,261,2.0,7.0,59,0.00,,---,0.01,VWS V14.01,2013-10-22 15:52:00,
2013-10-22 10:55:00,61.1,46.2,30.19,West,261,5.0,7.0,58,0.00,,---,0.01,VWS V14.01,2013-10-22 15:55:00,
2013-10-22 10:58:00,61.3,45.5,30.19,WSW,254,4.0,7.0,56,0.00,,---,0.01,VWS V14.01,2013-10-22 15:58:00,
2013-10-22 11:04:00,61.8,46.4,30.19,WNW,296,3.0,6.0,57,0.00,,---,0.01,VWS V14.01,2013-10-22 16:04:00,
2013-10-22 11:07:00,62.0,46.1,30.19,NW,309,5.0,6.0,56,0.00,,---,0.01,VWS V14.01,2013-10-22 16:07:00,
2013-10-22 11:10:00,62.2,45.8,30.18,WNW,299,2.0,7.0,55,0.00,,---,0.01,VWS V14.01,2013-10-22 16:10:00,
2013-10-22 11:16:00,62.7,45.3,30.18,WNW,284,2.0,9.0,53,0.00,,---,0.01,VWS V14.01,2013-10-22 16:16:00,
2013-10-22 11:19:00,63.1,45.7,30.18,WSW,241,4.0,9.0,53,0.00,,---,0.01,VWS V14.01,2013-10-22 16:19:00,
2013-10-22 11:22:00,63.3,45.9,30.18,WSW,246,7.0,9.0,53,0.00,,---,0.01,VWS V14.01,2013-10-22 16:22:00,
2013-10-22 11:28:00,64.2,45.2,30.18,WNW,298,5.0,9.0,50,0.00,,---,0.01,VWS V14.01,2013-10-22 16:28:00,
2013-10-22 11:35:00,65.0,44.3,30.17,WSW,243,1.0,10.0,47,0.00,,---,0.01,VWS V14.01,2013-10-22 16:35:00,
2013-10-22 11:38:00,65.2,45.6,30.17,WNW,299,3.0,10.0,49,0.00,,---,0.01,VWS V14.01,2013-10-22 16:38:00,
2013-10-22 11:41:00,65.6,44.8,30.17,WSW,246,1.0,10.0,47,0.00,,---,0.01,VWS V14.01,2013-10-22 16:41:00,
2013-10-22 11:44:00,65.9,45.1,30.17,West,261,1.0,10.0,47,0.00,,---,0.01,VWS V14.01,2013-10-22 16:44:00,
2013-10-22 11:47:00,66.2,44.2,30.17,WSW,258,6.0,10.0,45,0.00,,---,0.01,VWS V14.01,2013-10-22 16:47:00,
2013-10-22 11:50:00,66.3,46.0,30.17,WSW,257,5.0,10.0,48,0.00,,---,0.01,VWS V14.01,2013-10-22 16:50:00,
2013-10-22 11:53:00,66.6,45.2,30.17,WNW,298,4.0,10.0,46,0.00,,---,0.01,VWS V14.01,2013-10-22 16:53:00,
2013-10-22 11:56:00,66.7,45.3,30.17,WNW,288,7.0,10.0,46,0.00,,---,0.01,VWS V14.01,2013-10-22 16:56:00,
2013-10-22 11:59:00,66.8,44.2,30.17,West,261,4.0,4.0,44,0.00,,---,0.01,VWS V14.01,2013-10-22 16:59:00,
2013-10-22 12:02:00,67.0,44.4,30.17,WNW,298,4.0,7.0,44,0.00,,---,0.01,VWS V14.01,2013-10-22 17:02:00,
2013-10-22 12:05:00,67.3,44.7,30.17,WSW,256,0.0,7.0,44,0.00,,---,0.01,VWS V14.01,2013-10-22 17:05:00,
2013-10-22 12:08:00,67.5,44.8,30.17,NW,315,2.0,7.0,44,0.00,,---,0.01,VWS V14.01,2013-10-22 17:08:00,
2013-10-22 12:11:00,67.8,45.1,30.16,WSW,257,9.0,9.0,44,0.00,,---,0.01,VWS V14.01,2013-10-22 17:11:00,
2013-10-22 12:14:00,68.1,44.2,30.16,WNW,291,5.0,9.0,42,0.00,,---,0.01,VWS V14.01,2013-10-22 17:14:00,
2013-10-22 12:17:00,68.6,44.6,30.16,WNW,284,4.0,9.0,42,0.00,,---,0.01,VWS V14.01,2013-10-22 17:17:00,
2013-10-22 12:23:00,69.0,45.0,30.16,SW,236,6.0,9.0,42,0.00,,---,0.01,VWS V14.01,2013-10-22 17:23:00,
2013-10-22 12:26:00,69.2,44.5,30.15,WSW,244,5.0,9.0,41,0.00,,---,0.01,VWS V14.01,2013-10-22 17:26:00,
2013-10-22 12:29:00,69.1,44.4,30.15,SW,236,7.0,7.0,41,0.00,,---,0.01,VWS V14.01,2013-10-22 17:29:00,
2013-10-22 12:32:00,69.2,44.5,30.15,SW,229,7.0,8.0,41,0.00,,---,0.01,VWS V14.01,2013-10-22 17:32:00,
2013-10-22 12:38:00,69.5,43.5,30.15,WSW,257,4.0,9.0,39,0.00,,---,0.01,VWS V14.01,2013-10-22 17:38:00,
2013-10-22 12:41:00,70.1,44.0,30.15,WSW,243,7.0,10.0,39,0.00,,---,0.01,VWS V14.01,2013-10-22 17:41:00,
2013-10-22 12:44:00,70.3,41.4,30.15,West,259,7.0,10.0,35,0.00,,---,0.01,VWS V14.01,2013-10-22 17:44:00,
2013-10-22 12:47:00,70.4,44.3,30.15,West,267,5.0,10.0,39,0.00,,---,0.01,VWS V14.01,2013-10-22 17:47:00,
2013-10-22 12:50:00,70.3,42.8,30.14,SSW,213,7.0,10.0,37,0.00,,---,0.01,VWS V14.01,2013-10-22 17:50:00,
2013-10-22 12:53:00,70.2,43.4,30.15,SW,222,3.0,10.0,38,0.00,,---,0.01,VWS V14.01,2013-10-22 17:53:00,
2013-10-22 12:58:00,70.5,43.0,30.14,SW,222,4.0,10.0,37,0.00,,---,0.01,VWS V14.01,2013-10-22 17:58:00,
2013-10-22 12:59:00,70.6,43.8,30.14,SW,234,3.0,4.0,38,0.00,,---,0.01,VWS V14.01,2013-10-22 17:59:00,
2013-10-22 13:05:00,70.9,44.7,30.14,West,269,0.0,12.0,39,0.00,,---,0.01,VWS V14.01,2013-10-22 18:05:00,
2013-10-22 13:08:00,71.2,44.3,30.13,SSW,194,5.0,12.0,38,0.00,,---,0.01,VWS V14.01,2013-10-22 18:08:00,
2013-10-22 13:14:00,71.6,43.3,30.14,WNW,293,3.0,12.0,36,0.00,,---,0.01,VWS V14.01,2013-10-22 18:14:00,
2013-10-22 13:20:00,71.6,44.7,30.13,WNW,292,2.0,12.0,38,0.00,,---,0.01,VWS V14.01,2013-10-22 18:20:00,
2013-10-22 13:26:00,72.2,44.5,30.13,WSW,255,3.0,12.0,37,0.00,,---,0.01,VWS V14.01,2013-10-22 18:26:00,
2013-10-22 13:28:00,72.4,44.7,30.13,West,277,4.0,12.0,37,0.00,,---,0.01,VWS V14.01,2013-10-22 18:28:00,
2013-10-22 13:29:00,72.4,44.7,30.13,West,278,7.0,7.0,37,0.00,,---,0.01,VWS V14.01,2013-10-22 18:29:00,
2013-10-22 13:39:00,72.1,45.8,30.12,West,273,2.0,11.0,39,0.00,,---,0.01,VWS V14.01,2013-10-22 18:39:00,
2013-10-22 13:45:00,72.7,45.7,30.12,West,278,3.0,11.0,38,0.00,,---,0.01,VWS V14.01,2013-10-22 18:45:00,
2013-10-22 13:48:00,73.0,43.8,30.11,West,267,7.0,11.0,35,0.00,,---,0.01,VWS V14.01,2013-10-22 18:48:00,
2013-10-22 13:51:00,73.0,45.2,30.11,WSW,248,1.0,11.0,37,0.00,,---,0.01,VWS V14.01,2013-10-22 18:51:00,
2013-10-22 13:57:00,73.1,44.6,30.11,West,265,8.0,15.0,36,0.00,,---,0.01,VWS V14.01,2013-10-22 18:57:00,
2013-10-22 13:58:00,73.2,43.9,30.11,West,261,5.0,15.0,35,0.00,,---,0.01,VWS V14.01,2013-10-22 18:58:00,
2013-10-22 14:03:00,73.6,45.0,30.10,SW,229,6.0,10.0,36,0.00,,---,0.01,VWS V14.01,2013-10-22 19:03:00,
2013-10-22 14:09:00,74.2,44.1,30.10,NW,315,5.0,11.0,34,0.00,,---,0.01,VWS V14.01,2013-10-22 19:09:00,
2013-10-22 14:12:00,74.0,43.9,30.10,NW,325,5.0,12.0,34,0.00,,---,0.01,VWS V14.01,2013-10-22 19:12:00,
2013-10-22 14:15:00,74.0,45.4,30.10,NW,319,5.0,12.0,36,0.00,,---,0.01,VWS V14.01,2013-10-22 19:15:00,
2013-10-22 14:21:00,74.2,44.1,30.10,WSW,238,6.0,12.0,34,0.00,,---,0.01,VWS V14.01,2013-10-22 19:21:00,
2013-10-22 14:24:00,74.2,43.3,30.09,WSW,249,3.0,12.0,33,0.00,,---,0.01,VWS V14.01,2013-10-22 19:24:00,
2013-10-22 14:27:00,74.6,43.6,30.09,West,281,4.0,12.0,33,0.00,,---,0.01,VWS V14.01,2013-10-22 19:27:00,
2013-10-22 14:28:00,74.8,43.0,30.09,NW,313,7.0,12.0,32,0.00,,---,0.01,VWS V14.01,2013-10-22 19:28:00,
2013-10-22 14:30:00,75.0,44.0,30.09,WSW,254,4.0,7.0,33,0.00,,---,0.01,VWS V14.01,2013-10-22 19:30:00,
2013-10-22 14:33:00,75.0,43.2,30.09,WNW,299,3.0,8.0,32,0.00,,---,0.01,VWS V14.01,2013-10-22 19:33:00,
2013-10-22 14:36:00,74.9,43.9,30.08,SW,235,0.0,8.0,33,0.00,,---,0.01,VWS V14.01,2013-10-22 19:36:00,
2013-10-22 14:39:00,74.9,42.3,30.08,WSW,254,6.0,10.0,31,0.00,,---,0.01,VWS V14.01,2013-10-22 19:39:00,
2013-10-22 14:42:00,75.1,42.4,30.08,NW,311,4.0,10.0,31,0.00,,---,0.01,VWS V14.01,2013-10-22 19:42:00,
2013-10-22 14:45:00,75.0,44.0,30.08,West,279,7.0,10.0,33,0.00,,---,0.01,VWS V14.01,2013-10-22 19:45:00,
2013-10-22 14:48:00,75.1,42.4,30.08,West,278,4.0,10.0,31,0.00,,---,0.01,VWS V14.01,2013-10-22 19:48:00,
2013-10-22 14:51:00,75.2,43.3,30.08,WSW,240,3.0,11.0,32,0.00,,---,0.01,VWS V14.01,2013-10-22 19:51:00,
2013-10-22 14:54:00,75.5,43.6,30.08,NW,306,3.0,11.0,32,0.00,,---,0.01,VWS V14.01,2013-10-22 19:54:00,
2013-10-22 14:57:00,75.5,43.6,30.08,NW,321,7.0,11.0,32,0.00,,---,0.01,VWS V14.01,2013-10-22 19:57:00,
2013-10-22 15:03:00,75.8,42.2,30.08,SW,234,3.0,9.0,30,0.00,,---,0.01,VWS V14.01,2013-10-22 20:03:00,
2013-10-22 15:09:00,76.1,43.3,30.08,WNW,285,4.0,9.0,31,0.00,,---,0.01,VWS V14.01,2013-10-22 20:09:00,
2013-10-22 15:12:00,76.2,42.5,30.08,NW,319,4.0,9.0,30,0.00,,---,0.01,VWS V14.01,2013-10-22 20:12:00,
2013-10-22 15:15:00,76.1,42.5,30.08,WSW,258,0.0,11.0,30,0.00,,---,0.01,VWS V14.01,2013-10-22 20:15:00,
2013-10-22 15:18:00,76.1,42.5,30.08,WNW,294,4.0,11.0,30,0.00,,---,0.01,VWS V14.01,2013-10-22 20:18:00,
2013-10-22 15:21:00,76.2,43.4,30.07,WNW,298,3.0,11.0,31,0.00,,---,0.01,VWS V14.01,2013-10-22 20:21:00,
2013-10-22 15:24:00,76.3,43.5,30.07,NW,311,0.0,11.0,31,0.00,,---,0.01,VWS V14.01,2013-10-22 20:24:00,
2013-10-22 15:27:00,76.5,43.7,30.07,WNW,300,2.0,11.0,31,0.00,,---,0.01,VWS V14.01,2013-10-22 20:27:00,
2013-10-22 15:31:00,76.7,43.0,30.07,WSW,252,0.0,7.0,30,0.00,,---,0.01,VWS V14.01,2013-10-22 20:31:00,
2013-10-22 15:37:00,77.1,42.4,30.07,West,281,4.0,9.0,29,0.00,,---,0.01,VWS V14.01,2013-10-22 20:37:00,
2013-10-22 15:40:00,77.0,42.3,30.07,SW,234,4.0,9.0,29,0.00,,---,0.01,VWS V14.01,2013-10-22 20:40:00,
2013-10-22 15:43:00,77.1,43.3,30.07,WNW,291,0.0,9.0,30,0.00,,---,0.01,VWS V14.01,2013-10-22 20:43:00,
2013-10-22 15:46:00,77.4,42.7,30.07,WNW,289,1.0,9.0,29,0.00,,---,0.01,VWS V14.01,2013-10-22 20:46:00,
2013-10-22 15:49:00,77.5,40.9,30.07,WSW,255,4.0,10.0,27,0.00,,---,0.01,VWS V14.01,2013-10-22 20:49:00,
2013-10-22 15:52:00,77.4,41.8,30.07,NW,311,7.0,10.0,28,0.00,,---,0.01,VWS V14.01,2013-10-22 20:52:00,
2013-10-22 15:55:00,77.3,42.6,30.07,WSW,238,6.0,11.0,29,0.00,,---,0.01,VWS V14.01,2013-10-22 20:55:00,
2013-10-22 15:58:00,77.1,43.3,30.07,SSW,193,0.0,11.0,30,0.00,,---,0.01,VWS V14.01,2013-10-22 20:58:00,
2013-10-22 16:01:00,77.3,42.6,30.07,West,263,6.0,8.0,29,0.00,,---,0.01,VWS V14.01,2013-10-22 21:01:00,
2013-10-22 16:04:00,77.2,42.5,30.07,NW,305,0.0,8.0,29,0.00,,---,0.01,VWS V14.01,2013-10-22 21:04:00,
2013-10-22 16:07:00,77.2,43.4,30.06,NW,304,7.0,8.0,30,0.00,,---,0.01,VWS V14.01,2013-10-22 21:07:00,
2013-10-22 16:10:00,77.2,42.5,30.06,NW,313,2.0,10.0,29,0.00,,---,0.01,VWS V14.01,2013-10-22 21:10:00,
2013-10-22 16:13:00,77.2,42.5,30.06,WNW,296,3.0,10.0,29,0.00,,---,0.01,VWS V14.01,2013-10-22 21:13:00,
2013-10-22 16:16:00,77.4,41.8,30.06,NW,311,2.0,10.0,28,0.00,,---,0.01,VWS V14.01,2013-10-22 21:16:00,
2013-10-22 16:19:00,77.4,41.8,30.06,West,275,8.0,10.0,28,0.00,,---,0.01,VWS V14.01,2013-10-22 21:19:00,
2013-10-22 16:22:00,77.4,42.7,30.06,WSW,257,3.0,10.0,29,0.00,,---,0.01,VWS V14.01,2013-10-22 21:22:00,
2013-10-22 16:25:00,77.6,41.0,30.06,West,261,2.0,10.0,27,0.00,,---,0.01,VWS V14.01,2013-10-22 21:25:00,
2013-10-22 16:28:00,77.7,41.1,30.06,WSW,251,6.0,10.0,27,0.00,,---,0.01,VWS V14.01,2013-10-22 21:28:00,
2013-10-22 16:31:00,77.8,41.2,30.05,NW,323,3.0,7.0,27,0.00,,---,0.01,VWS V14.01,2013-10-22 21:31:00,
2013-10-22 16:34:00,77.8,40.2,30.05,WSW,248,9.0,11.0,26,0.00,,---,0.01,VWS V14.01,2013-10-22 21:34:00,
2013-10-22 16:40:00,77.6,40.0,30.05,West,275,2.0,11.0,26,0.00,,---,0.01,VWS V14.01,2013-10-22 21:40:00,
2013-10-22 16:43:00,77.6,41.0,30.05,WSW,256,7.0,11.0,27,0.00,,---,0.01,VWS V14.01,2013-10-22 21:43:00,
2013-10-22 16:46:00,77.7,41.1,30.05,WNW,285,2.0,11.0,27,0.00,,---,0.01,VWS V14.01,2013-10-22 21:46:00,
2013-10-22 16:49:00,77.8,41.2,30.05,West,281,0.0,11.0,27,0.00,,---,0.01,VWS V14.01,2013-10-22 21:49:00,
2013-10-22 16:52:00,77.7,41.1,30.05,SW,236,1.0,11.0,27,0.00,,---,0.01,VWS V14.01,2013-10-22 21:52:00,
2013-10-22 16:55:00,77.6,40.0,30.05,NW,313,3.0,11.0,26,0.00,,---,0.01,VWS V14.01,2013-10-22 21:55:00,
2013-10-22 16:58:00,77.5,41.9,30.05,WNW,298,0.0,11.0,28,0.00,,---,0.01,VWS V14.01,2013-10-22 21:58:00,
2013-10-22 17:04:00,77.7,40.1,30.05,WSW,254,1.0,10.0,26,0.00,,---,0.01,VWS V14.01,2013-10-22 22:04:00,
2013-10-22 17:07:00,77.6,41.0,30.05,NW,305,0.0,10.0,27,0.00,,---,0.01,VWS V14.01,2013-10-22 22:07:00,
2013-10-22 17:10:00,77.7,41.1,30.05,West,275,0.0,10.0,27,0.00,,---,0.01,VWS V14.01,2013-10-22 22:10:00,
2013-10-22 17:13:00,78.0,41.3,30.05,West,272,5.0,10.0,27,0.00,,---,0.01,VWS V14.01,2013-10-22 22:13:00,
2013-10-22 17:16:00,77.9,40.3,30.04,West,272,1.0,10.0,26,0.00,,---,0.01,VWS V14.01,2013-10-22 22:16:00,
2013-10-22 17:19:00,77.9,41.3,30.04,WNW,298,1.0,10.0,27,0.00,,---,0.01,VWS V14.01,2013-10-22 22:19:00,
2013-10-22 17:22:00,77.8,42.1,30.04,West,272,2.0,10.0,28,0.00,,---,0.01,VWS V14.01,2013-10-22 22:22:00,
2013-10-22 17:28:00,77.5,41.9,30.04,WNW,290,0.0,10.0,28,0.00,,---,0.01,VWS V14.01,2013-10-22 22:28:00,
2013-10-22 17:29:00,77.5,41.9,30.04,WNW,301,1.0,1.0,28,0.00,,---,0.01,VWS V14.01,2013-10-22 22:29:00,
2013-10-22 17:32:00,77.5,40.9,30.04,WSW,256,1.0,4.0,27,0.00,,---,0.01,VWS V14.01,2013-10-22 22:32:00,
2013-10-22 17:35:00,77.5,40.9,30.04,WSW,252,0.0,4.0,27,0.00,,---,0.01,VWS V14.01,2013-10-22 22:35:00,
2013-10-22 17:38:00,77.6,42.0,30.04,WSW,254,0.0,4.0,28,0.00,,---,0.01,VWS V14.01,2013-10-22 22:38:00,
2013-10-22 17:41:00,77.6,41.0,30.04,WSW,256,3.0,7.0,27,0.00,,---,0.01,VWS V14.01,2013-10-22 22:41:00,
2013-10-22 17:44:00,77.4,41.8,30.04,West,272,1.0,7.0,28,0.00,,---,0.01,VWS V14.01,2013-10-22 22:44:00,
2013-10-22 17:47:00,77.2,40.7,30.04,WSW,254,0.0,7.0,27,0.00,,---,0.01,VWS V14.01,2013-10-22 22:47:00,
2013-10-22 17:50:00,77.2,41.6,30.04,WSW,248,0.0,7.0,28,0.00,,---,0.01,VWS V14.01,2013-10-22 22:50:00,
2013-10-22 17:53:00,77.2,41.6,30.04,SW,235,0.0,7.0,28,0.00,,---,0.01,VWS V14.01,2013-10-22 22:53:00,
2013-10-22 17:56:00,77.1,40.6,30.04,WSW,238,2.0,7.0,27,0.00,,---,0.01,VWS V14.01,2013-10-22 22:56:00,
2013-10-22 17:59:00,77.0,42.3,30.04,WSW,247,1.0,1.0,29,0.00,,---,0.01,VWS V14.01,2013-10-22 22:59:00,
2013-10-22 18:02:00,76.7,41.2,30.04,WSW,257,2.0,4.0,28,0.00,,---,0.01,VWS V14.01,2013-10-22 23:02:00,
2013-10-22 18:05:00,76.5,41.0,30.04,WSW,246,0.0,4.0,28,0.00,,---,0.01,VWS V14.01,2013-10-22 23:05:00,
2013-10-22 18:08:00,76.4,41.8,30.04,West,261,0.0,4.0,29,0.00,,---,0.01,VWS V14.01,2013-10-22 23:08:00,
2013-10-22 18:11:00,76.4,40.9,30.04,West,261,0.0,4.0,28,0.00,,---,0.01,VWS V14.01,2013-10-22 23:11:00,
2013-10-22 18:14:00,76.4,40.9,30.04,West,261,0.0,4.0,28,0.00,,---,0.01,VWS V14.01,2013-10-22 23:14:00,
2013-10-22 18:17:00,76.3,41.7,30.03,West,261,0.0,4.0,29,0.00,,---,0.01,VWS V14.01,2013-10-22 23:17:00,
2013-10-22 18:20:00,76.2,41.7,30.03,West,261,0.0,4.0,29,0.00,,---,0.01,VWS V14.01,2013-10-22 23:20:00,
2013-10-22 18:23:00,76.0,41.5,30.03,West,261,0.0,4.0,29,0.00,,---,0.01,VWS V14.01,2013-10-22 23:23:00,
2013-10-22 18:26:00,75.8,42.2,30.03,West,261,0.0,4.0,30,0.00,,---,0.01,VWS V14.01,2013-10-22 23:26:00,
2013-10-22 18:28:00,75.7,43.0,30.03,West,261,0.0,4.0,31,0.00,,---,0.01,VWS V14.01,2013-10-22 23:28:00,
2013-10-22 18:32:00,75.4,43.5,30.03,West,261,0.0,0.0,32,0.00,,---,0.01,VWS V14.01,2013-10-22 23:32:00,
2013-10-22 18:35:00,75.0,43.2,30.03,West,261,0.0,0.0,32,0.00,,---,0.01,VWS V14.01,2013-10-22 23:35:00,
2013-10-22 18:41:00,74.0,43.9,30.03,West,261,0.0,0.0,34,0.00,,---,0.01,VWS V14.01,2013-10-22 23:41:00,
2013-10-22 18:44:00,73.3,43.3,30.03,West,261,0.0,0.0,34,0.00,,---,0.01,VWS V14.01,2013-10-22 23:44:00,
2013-10-22 18:47:00,72.4,42.5,30.03,West,261,0.0,0.0,34,0.00,,---,0.01,VWS V14.01,2013-10-22 23:47:00,
2013-10-22 18:50:00,71.5,42.4,30.03,West,261,0.0,0.0,35,0.00,,---,0.01,VWS V14.01,2013-10-22 23:50:00,
2013-10-22 18:53:00,70.4,42.2,30.03,West,261,0.0,0.0,36,0.00,,---,0.01,VWS V14.01,2013-10-22 23:53:00,
2013-10-22 18:56:00,69.6,42.2,30.03,West,261,0.0,0.0,37,0.00,,---,0.01,VWS V14.01,2013-10-22 23:56:00,
2013-10-22 18:58:00,69.1,42.5,30.03,West,261,0.0,0.0,38,0.00,,---,0.01,VWS V14.01,2013-10-22 23:58:00,
2013-10-22 19:02:00,68.4,42.5,30.03,West,261,0.0,0.0,39,0.00,,---,0.01,VWS V14.01,2013-10-23 00:02:00,
2013-10-22 19:05:00,67.7,42.5,30.03,West,261,0.0,0.0,40,0.00,,---,0.01,VWS V14.01,2013-10-23 00:05:00,
2013-10-22 19:11:00,66.4,43.8,30.03,West,261,0.0,0.0,44,0.00,,---,0.01,VWS V14.01,2013-10-23 00:11:00,
2013-10-22 19:14:00,65.7,44.4,30.03,West,261,0.0,0.0,46,0.00,,---,0.01,VWS V14.01,2013-10-23 00:14:00,
2013-10-22 19:17:00,64.9,44.2,30.03,West,261,0.0,0.0,47,0.00,,---,0.01,VWS V14.01,2013-10-23 00:17:00,
2013-10-22 19:20:00,64.1,42.9,30.03,West,261,0.0,0.0,46,0.00,,---,0.01,VWS V14.01,2013-10-23 00:20:00,
2013-10-22 19:23:00,63.1,43.1,30.03,West,261,0.0,0.0,48,0.00,,---,0.01,VWS V14.01,2013-10-23 00:23:00,
2013-10-22 19:26:00,62.4,43.0,30.04,West,261,0.0,0.0,49,0.00,,---,0.01,VWS V14.01,2013-10-23 00:26:00,
2013-10-22 19:28:00,62.0,43.7,30.04,West,261,0.0,0.0,51,0.00,,---,0.01,VWS V14.01,2013-10-23 00:28:00,
2013-10-22 19:29:00,61.7,43.4,30.04,West,261,0.0,0.0,51,0.00,,---,0.01,VWS V14.01,2013-10-23 00:29:00,
2013-10-22 19:33:00,61.2,43.5,30.04,West,261,0.0,0.0,52,0.00,,---,0.01,VWS V14.01,2013-10-23 00:33:00,
2013-10-22 19:36:00,60.7,43.0,30.04,West,261,0.0,0.0,52,0.00,,---,0.01,VWS V14.01,2013-10-23 00:36:00,
2013-10-22 19:39:00,60.4,43.2,30.04,West,261,0.0,0.0,53,0.00,,---,0.01,VWS V14.01,2013-10-23 00:39:00,
2013-10-22 19:42:00,60.1,42.9,30.04,West,261,0.0,0.0,53,0.00,,---,0.01,VWS V14.01,2013-10-23 00:42:00,
2013-10-22 19:45:00,59.9,42.7,30.04,West,261,0.0,0.0,53,0.00,,---,0.01,VWS V14.01,2013-10-23 00:45:00,
2013-10-22 19:48:00,59.8,43.1,30.04,West,261,0.0,0.0,54,0.00,,---,0.01,VWS V14.01,2013-10-23 00:48:00,
2013-10-22 19:51:00,59.7,43.0,30.04,West,261,0.0,0.0,54,0.00,,---,0.01,VWS V14.01,2013-10-23 00:51:00,
2013-10-22 19:54:00,59.6,43.0,30.04,West,261,0.0,0.0,54,0.00,,---,0.01,VWS V14.01,2013-10-23 00:54:00,
2013-10-22 19:57:00,59.5,42.9,30.04,West,261,0.0,0.0,54,0.00,,---,0.01,VWS V14.01,2013-10-23 00:57:00,
2013-10-22 20:00:00,59.4,42.8,30.04,West,261,0.0,0.0,54,0.00,,---,0.01,VWS V14.01,2013-10-23 01:00:00,
2013-10-22 20:03:00,59.2,43.1,30.04,West,261,0.0,0.0,55,0.00,,---,0.01,VWS V14.01,2013-10-23 01:03:00,
2013-10-22 20:06:00,58.9,43.2,30.04,West,261,0.0,0.0,56,0.00,,---,0.01,VWS V14.01,2013-10-23 01:06:00,
2013-10-22 20:12:00,58.3,43.2,30.04,West,261,0.0,0.0,57,0.00,,---,0.01,VWS V14.01,2013-10-23 01:12:00,
2013-10-22 20:15:00,58.0,42.9,30.04,West,261,0.0,0.0,57,0.00,,---,0.01,VWS V14.01,2013-10-23 01:15:00,
2013-10-22 20:18:00,57.8,43.1,30.04,West,261,0.0,0.0,58,0.00,,---,0.01,VWS V14.01,2013-10-23 01:18:00,
2013-10-22 20:21:00,57.8,42.7,30.04,West,261,0.0,0.0,57,0.00,,---,0.01,VWS V14.01,2013-10-23 01:21:00,
2013-10-22 20:24:00,57.7,43.0,30.04,West,261,0.0,0.0,58,0.00,,---,0.01,VWS V14.01,2013-10-23 01:24:00,
2013-10-22 20:27:00,57.6,43.0,30.04,West,261,0.0,0.0,58,0.00,,---,0.01,VWS V14.01,2013-10-23 01:27:00,
2013-10-22 20:30:00,57.7,43.0,30.04,West,261,0.0,0.0,58,0.00,,---,0.01,VWS V14.01,2013-10-23 01:30:00,
2013-10-22 20:33:00,57.6,43.0,30.04,West,261,0.0,0.0,58,0.00,,---,0.01,VWS V14.01,2013-10-23 01:33:00,
2013-10-22 20:39:00,57.6,43.4,30.04,West,261,0.0,0.0,59,0.00,,---,0.01,VWS V14.01,2013-10-23 01:39:00,
2013-10-22 20:45:00,57.5,43.3,30.04,West,261,0.0,0.0,59,0.00,,---,0.01,VWS V14.01,2013-10-23 01:45:00,
2013-10-22 20:48:00,57.4,43.2,30.05,West,261,0.0,0.0,59,0.00,,---,0.01,VWS V14.01,2013-10-23 01:48:00,
2013-10-22 20:51:00,57.3,43.1,30.04,West,261,0.0,0.0,59,0.00,,---,0.01,VWS V14.01,2013-10-23 01:51:00,
2013-10-22 20:54:00,57.2,43.5,30.05,West,261,0.0,0.0,60,0.00,,---,0.01,VWS V14.01,2013-10-23 01:54:00,
2013-10-22 20:58:00,57.1,43.4,30.05,West,261,0.0,0.0,60,0.00,,---,0.01,VWS V14.01,2013-10-23 01:58:00,
2013-10-22 21:00:00,57.1,43.4,30.05,West,261,0.0,0.0,60,0.00,,---,0.01,VWS V14.01,2013-10-23 02:00:00,
2013-10-22 21:03:00,57.2,43.5,30.05,West,261,0.0,0.0,60,0.00,,---,0.01,VWS V14.01,2013-10-23 02:03:00,
2013-10-22 21:06:00,57.2,43.0,30.05,West,261,0.0,0.0,59,0.00,,---,0.01,VWS V14.01,2013-10-23 02:06:00,
2013-10-22 21:09:00,57.1,42.9,30.05,West,261,0.0,0.0,59,0.00,,---,0.01,VWS V14.01,2013-10-23 02:09:00,
2013-10-22 21:12:00,57.2,43.0,30.05,West,261,0.0,0.0,59,0.00,,---,0.01,VWS V14.01,2013-10-23 02:12:00,
2013-10-22 21:15:00,57.2,43.0,30.05,West,261,0.0,0.0,59,0.00,,---,0.01,VWS V14.01,2013-10-23 02:15:00,
2013-10-22 21:18:00,57.2,43.0,30.05,West,261,0.0,0.0,59,0.00,,---,0.01,VWS V14.01,2013-10-23 02:18:00,
2013-10-22 21:21:00,57.1,42.9,30.05,West,261,0.0,0.0,59,0.00,,---,0.01,VWS V14.01,2013-10-23 02:21:00,
2013-10-22 21:24:00,57.1,43.4,30.05,West,261,0.0,0.0,60,0.00,,---,0.01,VWS V14.01,2013-10-23 02:24:00,
2013-10-22 21:27:00,57.0,43.3,30.05,West,261,0.0,0.0,60,0.00,,---,0.01,VWS V14.01,2013-10-23 02:27:00,
2013-10-22 21:34:00,57.0,43.7,30.05,West,261,0.0,0.0,61,0.00,,---,0.01,VWS V14.01,2013-10-23 02:34:00,
2013-10-22 21:40:00,57.5,43.3,30.05,West,261,0.0,0.0,59,0.00,,---,0.01,VWS V14.01,2013-10-23 02:40:00,
2013-10-22 21:43:00,57.8,43.6,30.05,West,261,0.0,0.0,59,0.00,,---,0.01,VWS V14.01,2013-10-23 02:43:00,
2013-10-22 21:46:00,58.0,43.3,30.06,West,261,0.0,0.0,58,0.00,,---,0.01,VWS V14.01,2013-10-23 02:46:00,
2013-10-22 21:49:00,58.0,43.3,30.05,WSW,257,1.0,5.0,58,0.00,,---,0.01,VWS V14.01,2013-10-23 02:49:00,
2013-10-22 21:52:00,58.2,43.5,30.06,WSW,257,2.0,5.0,58,0.00,,---,0.01,VWS V14.01,2013-10-23 02:52:00,
2013-10-22 21:55:00,58.2,43.5,30.06,SW,221,2.0,5.0,58,0.00,,---,0.01,VWS V14.01,2013-10-23 02:55:00,
2013-10-22 21:58:00,58.3,43.6,30.06,SW,218,2.0,5.0,58,0.00,,---,0.01,VWS V14.01,2013-10-23 02:58:00,
2013-10-22 22:01:00,58.3,43.6,30.06,SW,218,1.0,4.0,58,0.00,,---,0.01,VWS V14.01,2013-10-23 03:01:00,
2013-10-22 22:02:00,57.0,44.1,30.06,SW,218,1.0,2.0,62,0.00,,---,0.01,VWS V14.01,2013-10-23 03:02:00,
2013-10-22 22:04:00,58.1,43.4,30.06,SW,218,0.0,4.0,58,0.00,,---,0.01,VWS V14.01,2013-10-23 03:04:00,
2013-10-22 22:05:00,56.9,44.0,30.07,SW,218,1.0,3.0,62,0.00,,---,0.01,VWS V14.01,2013-10-23 03:05:00,
2013-10-22 22:07:00,57.8,43.1,30.06,SW,218,0.0,4.0,58,0.00,,---,0.01,VWS V14.01,2013-10-23 03:07:00,
2013-10-22 22:08:00,56.9,44.0,30.07,SW,218,1.0,3.0,62,0.00,,---,0.01,VWS V14.01,2013-10-23 03:08:00,
2013-10-22 22:10:00,57.5,43.3,30.06,SW,218,0.0,4.0,59,0.00,,---,0.01,VWS V14.01,2013-10-23 03:10:00,
2013-10-22 22:12:00,56.9,44.5,30.06,SW,218,2.0,3.0,63,0.00,,---,0.01,VWS V14.01,2013-10-23 03:12:00,
2013-10-22 22:13:00,57.2,43.0,30.06,SW,218,0.0,4.0,59,0.00,,---,0.01,VWS V14.01,2013-10-23 03:13:00,
2013-10-22 22:15:00,56.8,44.3,30.07,SW,218,2.0,3.0,63,0.00,,---,0.01,VWS V14.01,2013-10-23 03:15:00,
2013-10-22 22:16:00,57.0,43.3,30.06,SW,218,0.0,4.0,60,0.00,,---,0.01,VWS V14.01,2013-10-23 03:16:00,
2013-10-22 22:18:00,56.8,44.3,30.07,SW,218,1.0,3.0,63,0.00,,---,0.01,VWS V14.01,2013-10-23 03:18:00,
2013-10-22 22:19:00,56.7,43.0,30.06,SW,218,0.0,4.0,60,0.00,,---,0.01,VWS V14.01,2013-10-23 03:19:00,
2013-10-22 22:21:00,56.8,44.3,30.07,SW,218,2.0,3.0,63,0.00,,---,0.01,VWS V14.01,2013-10-23 03:21:00,
2013-10-22 22:22:00,56.6,42.9,30.06,SW,218,0.0,4.0,60,0.00,,---,0.01,VWS V14.01,2013-10-23 03:22:00,
2013-10-22 22:24:00,56.8,44.3,30.07,SW,218,2.0,3.0,63,0.00,,---,0.01,VWS V14.01,2013-10-23 03:24:00,
2013-10-22 22:25:00,56.5,42.8,30.06,SW,218,0.0,4.0,60,0.00,,---,0.01,VWS V14.01,2013-10-23 03:25:00,
2013-10-22 22:27:00,56.8,44.8,30.07,SW,218,2.0,3.0,64,0.00,,---,0.01,VWS V14.01,2013-10-23 03:27:00,
2013-10-22 22:28:00,56.6,42.9,30.07,SW,218,2.0,4.0,60,0.00,,---,0.01,VWS V14.01,2013-10-23 03:28:00,
2013-10-22 22:30:00,56.9,44.5,30.07,SW,218,2.0,3.0,63,0.00,,---,0.01,VWS V14.01,2013-10-23 03:30:00,
2013-10-22 22:31:00,56.7,43.0,30.06,SW,218,1.0,3.0,60,0.00,,---,0.01,VWS V14.01,2013-10-23 03:31:00,
2013-10-22 22:33:00,56.9,44.5,30.07,SW,218,2.0,3.0,63,0.00,,---,0.01,VWS V14.01,2013-10-23 03:33:00,
2013-10-22 22:36:00,56.9,44.9,30.07,SW,218,3.0,3.0,64,0.00,,---,0.01,VWS V14.01,2013-10-23 03:36:00,
2013-10-22 22:37:00,56.8,43.5,30.06,SW,218,1.0,3.0,61,0.00,,---,0.01,VWS V14.01,2013-10-23 03:37:00,
2013-10-22 22:39:00,56.9,44.9,30.07,SW,218,2.0,3.0,64,0.00,,---,0.01,VWS V14.01,2013-10-23 03:39:00,
2013-10-22 22:40:00,56.9,43.6,30.06,SW,218,2.0,3.0,61,0.00,,---,0.01,VWS V14.01,2013-10-23 03:40:00,
2013-10-22 22:42:00,56.9,44.9,30.07,SW,218,2.0,3.0,64,0.00,,---,0.01,VWS V14.01,2013-10-23 03:42:00,
2013-10-22 22:43:00,56.9,43.6,30.06,SW,218,1.0,3.0,61,0.00,,---,0.01,VWS V14.01,2013-10-23 03:43:00,
2013-10-22 22:45:00,56.9,44.9,30.07,SW,218,2.0,3.0,64,0.00,,---,0.01,VWS V14.01,2013-10-23 03:45:00,
2013-10-22 22:48:00,57.0,45.0,30.07,SW,218,3.0,3.0,64,0.00,,---,0.01,VWS V14.01,2013-10-23 03:48:00,
2013-10-22 22:49:00,57.0,43.7,30.07,SW,218,1.0,3.0,61,0.00,,---,0.01,VWS V14.01,2013-10-23 03:49:00,
2013-10-22 22:51:00,57.0,45.0,30.06,SW,218,2.0,3.0,64,0.00,,---,0.01,VWS V14.01,2013-10-23 03:51:00,
2013-10-22 22:54:00,57.0,45.0,30.06,SW,218,3.0,3.0,64,0.00,,---,0.01,VWS V14.01,2013-10-23 03:54:00,
2013-10-22 22:55:00,57.1,44.2,30.06,SW,218,1.0,3.0,62,0.00,,---,0.01,VWS V14.01,2013-10-23 03:55:00,
2013-10-22 22:57:00,57.0,45.0,30.07,SW,218,3.0,3.0,64,0.00,,---,0.01,VWS V14.01,2013-10-23 03:57:00,
2013-10-22 22:58:00,57.0,44.1,30.07,SW,218,2.0,3.0,62,0.00,,---,0.01,VWS V14.01,2013-10-23 03:58:00,
2013-10-22 23:00:00,57.1,45.0,30.06,SW,218,2.0,4.0,64,0.00,,---,0.01,VWS V14.01,2013-10-23 04:00:00,
2013-10-22 23:03:00,57.1,45.0,30.06,SW,218,3.0,4.0,64,0.00,,---,0.01,VWS V14.01,2013-10-23 04:03:00,
2013-10-22 23:06:00,57.1,45.0,30.06,SW,218,2.0,4.0,64,0.00,,---,0.01,VWS V14.01,2013-10-23 04:06:00,
2013-10-22 23:09:00,57.1,45.0,30.06,SW,218,2.0,4.0,64,0.00,,---,0.01,VWS V14.01,2013-10-23 04:09:00,
2013-10-22 23:12:00,57.0,45.0,30.06,SW,218,3.0,4.0,64,0.00,,---,0.01,VWS V14.01,2013-10-23 04:12:00,
2013-10-22 23:15:00,57.0,45.0,30.07,SW,218,2.0,4.0,64,0.00,,---,0.01,VWS V14.01,2013-10-23 04:15:00,
2013-10-22 23:18:00,57.0,45.0,30.07,SW,218,2.0,4.0,64,0.00,,---,0.01,VWS V14.01,2013-10-23 04:18:00,
2013-10-22 23:21:00,57.0,45.0,30.07,SW,218,2.0,4.0,64,0.00,,---,0.01,VWS V14.01,2013-10-23 04:21:00,
2013-10-22 23:24:00,56.9,44.5,30.07,SW,218,2.0,4.0,63,0.00,,---,0.01,VWS V14.01,2013-10-23 04:24:00,
2013-10-22 23:27:00,56.9,44.5,30.07,SW,218,3.0,4.0,63,0.00,,---,0.01,VWS V14.01,2013-10-23 04:27:00,
2013-10-22 23:30:00,56.9,44.5,30.07,SW,218,3.0,4.0,63,0.00,,---,0.01,VWS V14.01,2013-10-23 04:30:00,
2013-10-22 23:33:00,57.0,44.5,30.07,SW,218,3.0,3.0,63,0.00,,---,0.01,VWS V14.01,2013-10-23 04:33:00,
2013-10-22 23:36:00,56.9,44.9,30.07,SW,218,3.0,4.0,64,0.00,,---,0.01,VWS V14.01,2013-10-23 04:36:00,
2013-10-22 23:39:00,56.8,44.8,30.07,SW,218,3.0,4.0,64,0.00,,---,0.01,VWS V14.01,2013-10-23 04:39:00,
2013-10-22 23:42:00,56.8,44.8,30.07,SW,218,2.0,4.0,64,0.00,,---,0.01,VWS V14.01,2013-10-23 04:42:00,
2013-10-22 23:45:00,56.7,44.7,30.07,SW,218,2.0,4.0,64,0.00,,---,0.01,VWS V14.01,2013-10-23 04:45:00,
2013-10-22 23:48:00,56.5,44.5,30.07,SW,218,3.0,4.0,64,0.00,,---,0.01,VWS V14.01,2013-10-23 04:48:00,
2013-10-22 23:51:00,56.3,44.3,30.07,SW,218,2.0,4.0,64,0.00,,---,0.01,VWS V14.01,2013-10-23 04:51:00,
2013-10-22 23:54:00,56.1,44.1,30.07,SW,218,3.0,4.0,64,0.00,,---,0.01,VWS V14.01,2013-10-23 04:54:00,
2013-10-22 23:57:00,56.0,44.4,30.07,SW,218,2.0,4.0,65,0.00,,---,0.01,VWS V14.01,2013-10-23 04:57:00,